Observations for RENNES ST. JACQUES, France (LFRN)

LFRN 171900Z AUTO 35006KT CAVOK 21/13 Q1018 NOSIG   
LFRN 171830Z AUTO 35007KT CAVOK 22/13 Q1017 NOSIG   
LFRN 171800Z AUTO 29005KT CAVOK 23/11 Q1017 BECMG 35010KT   
LFRN 171730Z AUTO 26003KT 220V300 CAVOK 23/11 Q1017 NOSIG   
LFRN 171700Z AUTO 27004KT 230V290 CAVOK 23/11 Q1018 BECMG 35010KT   
LFRN 171630Z AUTO 26003KT 220V310 CAVOK 23/11 Q1018 NOSIG   
LFRN 171600Z AUTO 28003KT 190V330 CAVOK 24/11 Q1018 NOSIG   
LFRN 171530Z AUTO 23005KT 140V300 CAVOK 24/12 Q1018 NOSIG   
LFRN 171500Z AUTO 27006KT 200V320 CAVOK 25/12 Q1018 NOSIG   
LFRN 171430Z AUTO VRB03KT CAVOK 24/11 Q1018 NOSIG   
LFRN 171400Z AUTO VRB03KT CAVOK 23/11 Q1018 NOSIG   
LFRN 171330Z AUTO 30007KT 260V340 CAVOK 23/11 Q1018 NOSIG   
LFRN 171300Z AUTO 30006KT 260V330 CAVOK 23/11 Q1018 NOSIG   
LFRN 171230Z AUTO VRB03KT CAVOK 23/12 Q1019 NOSIG   
LFRN 171200Z AUTO 27004KT 200V360 CAVOK 23/11 Q1019 NOSIG   
LFRN 171130Z AUTO 24005KT 190V300 CAVOK 23/11 Q1019 NOSIG   
LFRN 171100Z AUTO 25006KT 210V300 CAVOK 21/11 Q1019 NOSIG   
LFRN 171030Z AUTO 27005KT 180V320 9999 FEW042 SCT048 BKN064 21/13 Q1019 NOSIG   
LFRN 171000Z AUTO 26005KT 200V310 9999 FEW039 BKN056 21/12 Q1019 NOSIG  
LFRN 170930Z AUTO VRB03KT 9999 FEW049 BKN064 22/12 Q1019 NOSIG  
LFRN 170900Z AUTO VRB03KT CAVOK 21/11 Q1019 NOSIG   
LFRN 170830Z AUTO VRB04KT CAVOK 20/12 Q1019 NOSIG   
LFRN 170800Z AUTO 34003KT 290V010 CAVOK 20/13 Q1019 NOSIG   
LFRN 170730Z AUTO 33005KT 290V350 CAVOK 19/13 Q1019 NOSIG   
LFRN 170700Z AUTO 29005KT 250V330 CAVOK 18/13 Q1019 NOSIG   
LFRN 170630Z AUTO 28005KT CAVOK 18/13 Q1019 NOSIG   
LFRN 170600Z AUTO 29005KT CAVOK 17/13 Q1018 NOSIG   
LFRN 170530Z AUTO 28004KT 250V310 CAVOK 16/13 Q1019 NOSIG   
LFRN 170500Z AUTO 29004KT CAVOK 16/13 Q1018 NOSIG   
LFRN 170430Z AUTO 29004KT 9999 BKN048 BKN054 OVC064 16/13 Q1018 NOSIG   
LFRN 170400Z AUTO 28003KT 9999 BKN046 OVC054 16/13 Q1018 NOSIG  
LFRN 170330Z AUTO 28004KT 9999 BKN046 OVC052 16/14 Q1018 NOSIG  
LFRN 170300Z AUTO 28003KT 9999 BKN043 OVC068 17/14 Q1018 NOSIG  
LFRN 170230Z AUTO 27003KT 9999 BKN037 OVC043 17/14 Q1018 NOSIG  
LFRN 170200Z AUTO 28004KT 9999 BKN037 BKN046 OVC054 17/14 Q1018 NOSIG   
LFRN 170130Z AUTO 29004KT 9999 BKN037 BKN056 17/14 Q1018 NOSIG  
LFRN 170100Z AUTO 33005KT 9999 SCT035 OVC041 18/13 Q1018 NOSIG  
LFRN 170030Z AUTO VRB02KT 9999 OVC034 17/14 Q1018 NOSIG 
LFRN 170000Z AUTO 33004KT 9999 BKN036 BKN043 BKN050 17/13 Q1018 NOSIG   
LFRN 162330Z AUTO 32005KT 9999 BKN034 OVC041 18/14 Q1018 NOSIG  
LFRN 162300Z AUTO 32004KT 290V350 9999 OVC032 18/14 Q1018 NOSIG 
LFRN 162230Z AUTO 32004KT 9999 SCT033 BKN043 BKN050 17/14 Q1018 NOSIG   
LFRN 162200Z AUTO 33005KT 9999 BKN040 18/14 Q1017 NOSIG 
LFRN 162130Z AUTO 34005KT 9999 SCT041 BKN047 BKN054 18/14 Q1017 NOSIG   
LFRN 162100Z AUTO 33008KT 310V010 9999 FEW042 BKN056 19/15 Q1017 NOSIG  
LFRN 162030Z AUTO 34009KT 9999 FEW018 BKN044 BKN068 19/15 Q1017 NOSIG   
LFRN 162000Z AUTO 33010KT 9999 FEW019 SCT045 BKN052 20/16 Q1016 NOSIG   
LFRN 161930Z AUTO 34011KT 310V010 9999 FEW046 21/15 Q1016 NOSIG 
LFRN 161900Z AUTO 35012KT 9999 SCT049 22/15 Q1015 NOSIG 
LFRN 161830Z AUTO 34011KT CAVOK 24/15 Q1015 NOSIG